< < Back
Terminal Aerodrome Forecast


Current Version              Previous Versions:   1  2  3  4  5  6  7  8  9  

Terminal Aerodrome Forecast

006
FTUS44 KOHX 072320
TAFCSV
TAF
KCSV 072320Z 0800/0824 23006KT P6SM VCSH BKN250
      TEMPO 0800/0804 4SM -SHRA OVC035
     FM081500 25010G20KT P6SM SCT030 BKN250=

Latest METAR

632
SAUS70 KWBC 080000 RRJ
MTRCSV
METAR KCSV 072353Z AUTO 23004KT 10SM CLR 27/19 A3012 RMK AO2 SLP177
T02670194 10294 20267 55006


USA.gov is the U.S. government's official web portal to all federal, state and local government web resources and services.